Boyd, WI

9:01 AM CST on December 22, 2014 (GMT -0600)
Menomonie | Change Station
CLOSE
Current Station
Airport
Location: Menomonie,
Elevation: 896 ft
Nearby Weather Stations
Active Advisory: Winter Weather Advisory

Elev 896 ft 44.89 °N, 91.87 °W | Updated 6 minutes ago

Overcast
Overcast
35 °F
Feels Like 27 °F
N
10
Wind Variable Wind from ESE

Today
High -- | Low -- °F
--% Chance of Precip.
Yesterday
High -- | Low -- °F
Precip. -- in
7:39 AM 4:26 PM
New Moon, 0% visible
Pressure 29.73 in
Visibility 1.8 miles
Clouds Overcast 600 ft
Windchill 27 °F
Dew Point 34 °F
Humidity 96%
Rainfall 0.27 in
Snow Depth Not available.
UV 0 out of 12
Pollen .10 out of 12
Air Quality Not available.
Flu Activity Not available.
METAR KLUM 221455Z AUTO 12009KT 1 3/4SM BR OVC006 02/01 A2973 RMK AO2 T00170011

More Conditions Fewer Conditions

Pressure 29.73 in
Visibility 1.8 miles
Clouds Overcast 600 ft
Windchill 27 °F
Dew Point 34 °F
Humidity 96%
Rainfall 0.27 in
Snow Depth Not available.
UV 0 out of 12
Pollen .10 out of 12
Air Quality Not available.
Flu Activity Not available.
METAR KLUM 221455Z AUTO 12009KT 1 3/4SM BR OVC006 02/01 A2973 RMK AO2 T00170011

More Conditions Fewer Conditions

10-Day Weather Forecast

Almanac

Astronomy

Dec. 22, 2014 Rise Set
Actual Time
Civil Twilight
Nautical Twilight
Astronomical Twilight
Moon
Length of Visible Light
Length of Day
Tomorrow will be .
, % of the Moon is Illuminated

Today's Extremes

State Highs State Lows

Community

WunderPhotos

Upload Photos

1,779,610 photos uploaded!

WunderBlogs® & News

Nearby

Air Quality

  Air Quality AQ Index Pollutant
Not available.

Snow Depth

Station Depth Elevation

Earthquake Activity

City Distance Mag. Time & Date
Minimum magnitude displayed is 2.5.

Coastal Water Temperatures

Place Temperature

Nearby Weather Stations